createdAt,value
2018-12-29T00:01:58.287Z,18.17
2018-12-29T00:04:25.819Z,17.98
2018-12-29T00:06:52.595Z,18.00
2018-12-29T00:09:19.338Z,16.85
2018-12-29T00:11:46.506Z,18.00
2018-12-29T00:14:13.267Z,17.17
2018-12-29T00:16:40.346Z,18.27
2018-12-29T00:19:07.109Z,17.12
2018-12-29T00:21:34.496Z,16.75
2018-12-29T00:24:01.544Z,18.30
2018-12-29T00:26:28.414Z,17.50
2018-12-29T00:28:55.774Z,18.07
2018-12-29T00:31:22.538Z,17.92
2018-12-29T00:33:49.822Z,17.62
2018-12-29T00:36:17.670Z,18.00
2018-12-29T00:38:44.930Z,17.20
2018-12-29T00:41:11.966Z,17.42
2018-12-29T00:43:39.412Z,16.50
2018-12-29T00:46:06.184Z,18.10
2018-12-29T00:48:33.969Z,17.48
2018-12-29T00:51:01.328Z,17.17
2018-12-29T00:53:28.935Z,17.02
2018-12-29T00:55:56.496Z,17.77
2018-12-29T00:58:24.172Z,18.07
2018-12-29T01:00:50.931Z,18.45
2018-12-29T01:03:18.312Z,18.07
2018-12-29T01:05:45.071Z,20.15
2018-12-29T01:08:12.090Z,22.85
2018-12-29T01:10:39.191Z,21.68
2018-12-29T01:13:06.364Z,20.27
2018-12-29T01:15:33.382Z,20.23
2018-12-29T01:18:00.658Z,20.32
2018-12-29T01:20:27.762Z,19.50
2018-12-29T01:22:54.839Z,20.68
2018-12-29T01:25:21.827Z,20.60
2018-12-29T01:27:48.599Z,20.55
2018-12-29T01:30:16.362Z,22.27
2018-12-29T01:32:43.749Z,21.85
2018-12-29T01:35:10.870Z,22.62
2018-12-29T01:37:37.963Z,22.25
2018-12-29T01:40:05.048Z,22.65
2018-12-29T01:42:32.177Z,22.40
2018-12-29T01:44:58.962Z,22.10
2018-12-29T01:47:25.728Z,21.82
2018-12-29T01:49:52.863Z,20.70
2018-12-29T01:52:20.138Z,20.62
2018-12-29T01:54:47.407Z,22.55
2018-12-29T01:57:14.633Z,21.20
2018-12-29T01:59:41.674Z,21.25
2018-12-29T02:02:08.874Z,21.93
2018-12-29T02:04:36.088Z,21.85
2018-12-29T02:07:03.493Z,21.52
2018-12-29T02:09:31.516Z,21.57
2018-12-29T02:11:58.782Z,20.80
2018-12-29T02:14:26.051Z,21.55
2018-12-29T02:16:53.151Z,20.10
2018-12-29T02:19:20.451Z,21.25
2018-12-29T02:21:47.211Z,20.20
2018-12-29T02:24:14.933Z,19.62
2018-12-29T02:26:42.739Z,19.73
2018-12-29T02:29:09.510Z,20.00
2018-12-29T02:31:36.890Z,18.02
2018-12-29T02:34:03.657Z,18.52
2018-12-29T02:36:31.554Z,17.73
2018-12-29T02:38:58.954Z,18.00
2018-12-29T02:41:26.614Z,17.12
2018-12-29T02:43:53.983Z,16.85
2018-12-29T02:46:21.226Z,17.67
2018-12-29T02:48:47.987Z,17.87
2018-12-29T02:51:15.034Z,16.07
2018-12-29T02:53:42.870Z,17.80
2018-12-29T02:56:10.280Z,16.57
2018-12-29T02:58:38.004Z,17.07
2018-12-29T03:01:05.563Z,17.73
2018-12-29T03:03:32.707Z,17.75
2018-12-29T03:05:59.764Z,18.32
2018-12-29T03:08:26.767Z,16.57
2018-12-29T03:10:54.086Z,17.30
2018-12-29T03:13:21.483Z,17.67
2018-12-29T03:15:48.518Z,18.02
2018-12-29T03:18:15.873Z,17.00
2018-12-29T03:20:42.989Z,18.27
2018-12-29T03:23:09.738Z,18.67
2018-12-29T03:25:37.063Z,18.42
2018-12-29T03:28:04.355Z,18.15
2018-12-29T03:30:31.379Z,17.57
2018-12-29T03:32:58.732Z,18.98
2018-12-29T03:35:26.491Z,17.48
2018-12-29T03:37:53.746Z,17.90
2018-12-29T03:40:20.519Z,17.52
2018-12-29T03:42:47.938Z,17.98
2018-12-29T03:45:15.023Z,18.73
2018-12-29T03:47:42.143Z,17.80
2018-12-29T03:50:08.894Z,16.82
2018-12-29T03:52:36.232Z,18.30
2018-12-29T03:55:03.511Z,17.70
2018-12-29T03:57:30.966Z,16.90
2018-12-29T03:59:57.719Z,16.70
2018-12-29T04:02:25.039Z,17.73
2018-12-29T04:04:52.302Z,17.80
2018-12-29T04:07:20.010Z,17.42
2018-12-29T04:09:46.775Z,17.55
2018-12-29T04:12:18.814Z,17.67
2018-12-29T04:14:46.419Z,17.12
2018-12-29T04:17:13.727Z,16.93
2018-12-29T04:19:41.535Z,16.82
2018-12-29T04:22:09.105Z,17.12
2018-12-29T04:24:36.498Z,16.57
2018-12-29T04:27:03.725Z,16.50
2018-12-29T04:29:30.819Z,16.67
2018-12-29T04:31:58.263Z,17.07
2018-12-29T04:34:25.293Z,15.88
2018-12-29T04:36:52.395Z,16.20
2018-12-29T04:39:19.970Z,15.20
2018-12-29T04:41:47.322Z,15.80
2018-12-29T04:44:15.404Z,16.75
2018-12-29T04:46:42.418Z,17.27
2018-12-29T04:49:09.763Z,17.15
2018-12-29T04:51:37.059Z,17.17
2018-12-29T04:54:04.126Z,16.07
2018-12-29T04:56:31.559Z,17.23
2018-12-29T04:58:58.751Z,16.65
2018-12-29T05:01:26.479Z,17.07
2018-12-29T05:03:53.526Z,17.73
2018-12-29T05:06:20.671Z,17.45
2018-12-29T05:08:48.546Z,18.15
2018-12-29T05:11:15.815Z,17.27
2018-12-29T05:13:42.902Z,18.25
2018-12-29T05:16:12.984Z,17.87
2018-12-29T05:18:38.637Z,18.15
2018-12-29T05:21:05.780Z,17.42
2018-12-29T05:23:33.282Z,18.20
2018-12-29T05:26:01.312Z,17.67
2018-12-29T05:28:28.348Z,18.32
2018-12-29T05:30:55.355Z,16.87
2018-12-29T05:33:22.407Z,17.40
2018-12-29T05:35:49.426Z,18.25
2018-12-29T05:38:16.199Z,17.90
2018-12-29T05:40:43.052Z,16.70
2018-12-29T05:43:10.487Z,18.48
2018-12-29T05:45:38.000Z,18.48
2018-12-29T05:48:05.067Z,17.12
2018-12-29T05:50:32.123Z,18.10
2018-12-29T05:52:59.398Z,17.80
2018-12-29T05:55:26.472Z,17.95
2018-12-29T05:57:53.295Z,18.77
2018-12-29T06:00:20.166Z,19.65
2018-12-29T06:02:47.559Z,18.05
2018-12-29T06:05:14.620Z,17.92
2018-12-29T06:07:41.750Z,17.40
2018-12-29T06:10:08.544Z,20.23
2018-12-29T06:12:35.982Z,18.70
2018-12-29T06:15:03.290Z,19.15
2018-12-29T06:17:30.739Z,19.87
2018-12-29T06:19:57.551Z,18.42
2018-12-29T06:22:24.586Z,19.32
2018-12-29T06:24:52.227Z,18.95
2018-12-29T06:27:20.015Z,19.27
2018-12-29T06:29:47.427Z,19.85
2018-12-29T06:32:14.971Z,19.32
2018-12-29T06:34:42.754Z,18.57
2018-12-29T06:37:10.151Z,19.25
2018-12-29T06:39:37.387Z,18.98
2018-12-29T06:42:04.150Z,20.05
2018-12-29T06:44:30.927Z,19.35
2018-12-29T06:46:58.542Z,19.73
2018-12-29T06:49:25.862Z,19.40
2018-12-29T06:51:52.950Z,20.35
2018-12-29T06:54:20.010Z,19.92
2018-12-29T06:56:46.771Z,18.12
2018-12-29T06:59:13.666Z,19.57
2018-12-29T07:01:40.584Z,19.75
2018-12-29T07:04:07.892Z,19.05
2018-12-29T07:06:35.246Z,20.12
2018-12-29T07:09:03.815Z,19.55
2018-12-29T07:11:30.811Z,20.12
2018-12-29T07:13:58.427Z,19.70
2018-12-29T07:16:25.428Z,21.10
2018-12-29T07:18:52.551Z,20.30
2018-12-29T07:21:19.671Z,21.57
2018-12-29T07:23:46.875Z,20.23
2018-12-29T07:26:13.998Z,19.15
2018-12-29T07:28:41.435Z,19.87
2018-12-29T07:31:09.064Z,22.37
2018-12-29T07:33:36.490Z,29.85
2018-12-29T07:36:03.253Z,20.52
2018-12-29T07:38:30.180Z,20.55
2018-12-29T07:40:56.958Z,20.37
2018-12-29T07:43:23.998Z,21.75
2018-12-29T07:45:51.155Z,21.95
2018-12-29T07:48:18.764Z,21.27
2018-12-29T07:50:46.371Z,21.62
2018-12-29T07:53:14.154Z,20.10
2018-12-29T07:55:41.786Z,21.60
2018-12-29T07:58:08.970Z,21.68
2018-12-29T08:00:36.001Z,21.90
2018-12-29T08:03:02.874Z,21.60
2018-12-29T08:05:30.189Z,21.40
2018-12-29T08:07:57.272Z,20.48
2018-12-29T08:10:24.687Z,21.10
2018-12-29T08:12:51.855Z,22.17
2018-12-29T08:15:19.443Z,22.40
2018-12-29T08:17:46.558Z,21.62
2018-12-29T08:20:14.352Z,21.15
2018-12-29T08:22:41.811Z,20.32
2018-12-29T08:25:09.430Z,21.62
2018-12-29T08:27:36.667Z,20.92
2018-12-29T08:30:04.767Z,20.88
2018-12-29T08:32:32.037Z,20.48
2018-12-29T08:34:59.822Z,20.60
2018-12-29T08:37:26.689Z,20.82
2018-12-29T08:39:54.175Z,19.95
2018-12-29T08:42:21.706Z,20.97
2018-12-29T08:44:48.823Z,21.35
2018-12-29T08:47:16.203Z,20.48
2018-12-29T08:49:43.540Z,21.62
2018-12-29T08:52:10.894Z,20.85
2018-12-29T08:54:37.936Z,21.50
2018-12-29T08:57:04.795Z,21.97
2018-12-29T08:59:32.343Z,20.10
2018-12-29T09:02:00.271Z,20.40
2018-12-29T09:04:27.171Z,20.32
2018-12-29T09:06:54.425Z,21.30
2018-12-29T09:09:21.906Z,21.95
2018-12-29T09:11:49.399Z,20.62
2018-12-29T09:14:16.162Z,21.87
2018-12-29T09:16:43.178Z,20.70
2018-12-29T09:19:10.755Z,22.48
2018-12-29T09:21:38.342Z,20.40
2018-12-29T09:24:05.351Z,20.02
2018-12-29T09:26:32.448Z,20.60
2018-12-29T09:28:59.439Z,20.77
2018-12-29T09:31:26.458Z,22.07
2018-12-29T09:33:53.826Z,20.55
2018-12-29T09:36:21.548Z,20.92
2018-12-29T09:38:49.134Z,21.50
2018-12-29T09:41:15.922Z,25.62
2018-12-29T09:43:42.895Z,25.52
2018-12-29T09:46:09.915Z,20.48
2018-12-29T09:48:37.552Z,20.05
2018-12-29T09:51:04.357Z,21.62
2018-12-29T09:53:32.074Z,21.62
2018-12-29T09:55:59.150Z,21.57
2018-12-29T09:58:26.351Z,21.40
2018-12-29T10:00:53.883Z,22.42
2018-12-29T10:03:21.162Z,21.42
2018-12-29T10:05:47.979Z,20.37
2018-12-29T10:08:15.848Z,19.98
2018-12-29T10:10:42.796Z,19.48
2018-12-29T10:13:09.919Z,20.40
2018-12-29T10:15:37.847Z,20.10
2018-12-29T10:18:04.910Z,20.73
2018-12-29T10:20:31.941Z,20.97
2018-12-29T10:22:59.289Z,19.48
2018-12-29T10:25:26.647Z,20.85
2018-12-29T10:27:54.058Z,21.10
2018-12-29T10:30:21.515Z,22.80
2018-12-29T10:32:48.905Z,21.90
2018-12-29T10:35:16.223Z,21.37
2018-12-29T10:37:43.354Z,21.73
2018-12-29T10:40:10.675Z,19.37
2018-12-29T10:42:37.443Z,21.05
2018-12-29T10:45:04.489Z,20.07
2018-12-29T10:47:34.676Z,19.90
2018-12-29T10:50:01.071Z,19.47
2018-12-29T10:52:28.103Z,20.00
2018-12-29T10:54:55.163Z,19.12
2018-12-29T10:57:22.701Z,18.67
2018-12-29T10:59:50.079Z,19.12
2018-12-29T11:02:17.051Z,19.82
2018-12-29T11:04:44.474Z,20.15
2018-12-29T11:07:12.138Z,19.85
2018-12-29T11:09:39.511Z,19.90
2018-12-29T11:12:06.565Z,20.35
2018-12-29T11:14:34.063Z,18.70
2018-12-29T11:17:01.419Z,19.70
2018-12-29T11:19:28.439Z,18.70
2018-12-29T11:21:55.455Z,19.62
2018-12-29T11:24:22.465Z,18.87
2018-12-29T11:26:49.878Z,18.87
2018-12-29T11:29:16.979Z,18.70
2018-12-29T11:31:44.162Z,19.02
2018-12-29T11:34:11.126Z,19.73
2018-12-29T11:36:38.166Z,19.50
2018-12-29T11:39:05.721Z,18.80
2018-12-29T11:41:33.380Z,19.20
2018-12-29T11:44:00.254Z,18.95
2018-12-29T11:46:27.267Z,18.02
2018-12-29T11:48:54.422Z,19.32
2018-12-29T11:51:21.465Z,19.17
2018-12-29T11:53:48.755Z,18.17
2018-12-29T11:56:15.625Z,17.80
2018-12-29T11:58:42.978Z,18.57
2018-12-29T12:01:10.167Z,18.70
2018-12-29T12:03:37.583Z,17.97
2018-12-29T12:06:04.643Z,25.30
2018-12-29T12:08:31.716Z,18.48
2018-12-29T12:10:58.781Z,18.30
2018-12-29T12:13:26.447Z,18.33
2018-12-29T12:15:54.300Z,17.48
2018-12-29T12:18:21.351Z,18.48
2018-12-29T12:20:48.711Z,19.00
2018-12-29T12:23:16.366Z,18.20
2018-12-29T12:25:43.615Z,18.07
2018-12-29T12:28:10.926Z,18.15
2018-12-29T12:30:38.058Z,18.52
2018-12-29T12:33:05.806Z,19.57
2018-12-29T12:35:33.078Z,18.17
2018-12-29T12:38:00.800Z,18.20
2018-12-29T12:40:27.665Z,19.10
2018-12-29T12:42:55.101Z,18.10
2018-12-29T12:45:22.122Z,18.33
2018-12-29T12:47:49.925Z,17.17
2018-12-29T12:50:16.962Z,17.57
2018-12-29T12:52:44.064Z,17.40
2018-12-29T12:55:11.120Z,17.73
2018-12-29T12:57:38.123Z,17.93
2018-12-29T13:00:07.069Z,18.45
2018-12-29T13:02:34.226Z,17.63
2018-12-29T13:05:01.012Z,17.82
2018-12-29T13:07:28.500Z,18.33
2018-12-29T13:09:55.728Z,18.25
2018-12-29T13:12:23.416Z,18.30
2018-12-29T13:14:50.835Z,19.20
2018-12-29T13:17:18.291Z,17.40
2018-12-29T13:19:46.350Z,17.23
2018-12-29T13:22:14.111Z,19.27
2018-12-29T13:24:41.780Z,18.57
2018-12-29T13:27:10.063Z,19.63
2018-12-29T13:29:37.381Z,18.52
2018-12-29T13:32:04.667Z,18.10
2018-12-29T13:34:31.773Z,17.85
2018-12-29T13:36:58.536Z,18.97
2018-12-29T13:39:25.817Z,17.90
2018-12-29T13:42:06.123Z,18.47
2018-12-29T13:44:33.518Z,18.37
2018-12-29T13:47:00.547Z,20.30
2018-12-29T13:49:27.928Z,18.50
2018-12-29T13:51:55.326Z,18.60
2018-12-29T13:54:22.436Z,17.10
2018-12-29T13:56:50.395Z,17.23
2018-12-29T13:59:17.762Z,18.40
2018-12-29T14:01:44.609Z,18.17
2018-12-29T14:04:11.718Z,17.63
2018-12-29T14:06:38.795Z,17.90
2018-12-29T14:09:05.682Z,18.90
2018-12-29T14:11:33.708Z,17.77
2018-12-29T14:14:00.457Z,18.33
2018-12-29T14:16:28.419Z,19.17
2018-12-29T14:18:56.205Z,17.97
2018-12-29T14:21:23.856Z,17.97
2018-12-29T14:23:51.302Z,19.33
2018-12-29T14:26:18.589Z,18.07
2018-12-29T14:28:45.951Z,18.47
2018-12-29T14:31:13.504Z,19.23
2018-12-29T14:33:40.270Z,20.07
2018-12-29T14:36:07.514Z,20.57
2018-12-29T14:38:34.772Z,19.33
2018-12-29T14:41:02.234Z,19.00
2018-12-29T14:43:29.526Z,20.43
2018-12-29T14:45:56.831Z,18.40
2018-12-29T14:48:24.133Z,16.23
2018-12-29T14:50:51.179Z,16.67
2018-12-29T14:53:18.519Z,15.93
2018-12-29T14:55:45.838Z,14.10
2018-12-29T14:58:12.932Z,14.63
2018-12-29T15:00:39.675Z,14.57
2018-12-29T15:03:06.735Z,14.57
2018-12-29T15:05:34.136Z,15.30
2018-12-29T15:08:01.514Z,15.43
2018-12-29T15:10:29.550Z,16.20
2018-12-29T15:12:56.722Z,16.17
2018-12-29T15:15:23.824Z,15.10
2018-12-29T15:17:51.135Z,15.67
2018-12-29T15:20:18.851Z,14.23
2018-12-29T15:22:46.182Z,15.32
2018-12-29T15:25:13.498Z,15.87
2018-12-29T15:27:41.615Z,17.37
2018-12-29T15:30:08.905Z,16.60
2018-12-29T15:32:36.532Z,16.67
2018-12-29T15:35:03.926Z,16.33
2018-12-29T15:37:31.491Z,16.40
2018-12-29T15:39:58.895Z,17.83
2018-12-29T15:42:27.038Z,18.50
2018-12-29T15:44:54.454Z,16.43
2018-12-29T15:47:22.226Z,17.30
2018-12-29T15:49:49.311Z,17.40
2018-12-29T15:52:16.649Z,17.55
2018-12-29T15:54:44.591Z,17.90
2018-12-29T15:57:11.922Z,19.00
2018-12-29T15:59:39.559Z,18.77
2018-12-29T16:02:06.946Z,19.60
2018-12-29T16:04:34.663Z,19.67
2018-12-29T16:07:01.754Z,19.70
2018-12-29T16:09:30.031Z,18.12
2018-12-29T16:11:57.534Z,17.60
2018-12-29T16:14:24.598Z,18.20
2018-12-29T16:16:52.450Z,18.70
2018-12-29T16:19:19.825Z,18.82
2018-12-29T16:21:47.374Z,17.27
2018-12-29T16:24:15.000Z,18.23
2018-12-29T16:26:42.558Z,17.35
2018-12-29T16:29:10.023Z,17.67
2018-12-29T16:31:37.022Z,19.30
2018-12-29T16:34:06.218Z,18.65
2018-12-29T16:36:33.270Z,18.48
2018-12-29T16:39:00.903Z,19.02
2018-12-29T16:41:27.790Z,18.73
2018-12-29T16:43:55.202Z,17.85
2018-12-29T16:46:22.576Z,18.42
2018-12-29T16:48:50.087Z,18.02
2018-12-29T16:51:17.522Z,17.75
2018-12-29T16:53:44.934Z,17.05
2018-12-29T16:56:12.127Z,17.23
2018-12-29T16:58:39.126Z,15.90
2018-12-29T17:01:06.733Z,16.35
2018-12-29T17:03:33.791Z,17.20
2018-12-29T17:06:02.403Z,15.23
2018-12-29T17:08:29.931Z,15.93
2018-12-29T17:10:56.907Z,14.37
2018-12-29T17:13:24.790Z,15.00
2018-12-29T17:15:52.058Z,14.30
2018-12-29T17:18:19.178Z,14.60
2018-12-29T17:20:46.510Z,13.78
2018-12-29T17:23:17.902Z,14.13
2018-12-29T17:25:45.311Z,13.55
2018-12-29T17:28:12.706Z,14.63
2018-12-29T17:30:39.969Z,15.20
2018-12-29T17:33:06.983Z,14.17
2018-12-29T17:35:34.025Z,13.00
2018-12-29T17:38:01.303Z,13.08
2018-12-29T17:40:28.727Z,13.55
2018-12-29T17:42:56.331Z,13.95
2018-12-29T17:45:23.202Z,12.78
2018-12-29T17:47:50.939Z,12.80
2018-12-29T17:50:18.610Z,12.53
2018-12-29T17:52:45.622Z,12.20
2018-12-29T17:55:13.241Z,12.17
2018-12-29T17:57:40.690Z,12.23
2018-12-29T18:00:07.919Z,12.10
2018-12-29T18:02:35.090Z,12.37
2018-12-29T18:05:01.841Z,10.50
2018-12-29T18:07:28.915Z,9.60
2018-12-29T18:09:57.260Z,10.37
2018-12-29T18:12:25.215Z,11.10
2018-12-29T18:14:52.616Z,10.77
2018-12-29T18:17:20.349Z,10.60
2018-12-29T18:19:47.538Z,10.77
2018-12-29T18:22:14.550Z,9.50
2018-12-29T18:24:41.606Z,10.07
2018-12-29T18:27:09.007Z,10.27
2018-12-29T18:29:36.477Z,10.17
2018-12-29T18:32:03.482Z,10.40
2018-12-29T18:34:30.879Z,10.57
2018-12-29T18:36:58.258Z,9.97
2018-12-29T18:39:25.495Z,11.10
2018-12-29T18:41:53.210Z,10.90
2018-12-29T18:44:20.634Z,10.97
2018-12-29T18:46:48.186Z,10.90
2018-12-29T18:49:15.848Z,10.93
2018-12-29T18:51:42.603Z,11.70
2018-12-29T18:54:10.267Z,11.30
2018-12-29T18:56:45.338Z,11.03
2018-12-29T18:59:06.562Z,12.55
2018-12-29T19:01:33.671Z,12.23
2018-12-29T19:04:00.870Z,12.93
2018-12-29T19:06:28.207Z,11.05
2018-12-29T19:08:55.559Z,11.10
2018-12-29T19:11:23.382Z,11.75
2018-12-29T19:13:50.666Z,11.90
2018-12-29T19:16:17.921Z,12.30
2018-12-29T19:18:45.386Z,12.73
2018-12-29T19:21:12.987Z,12.23
2018-12-29T19:23:40.692Z,12.17
2018-12-29T19:26:08.111Z,12.77
2018-12-29T19:28:35.687Z,12.77
2018-12-29T19:31:02.536Z,14.03
2018-12-29T19:33:30.131Z,12.93
2018-12-29T19:35:57.289Z,13.77
2018-12-29T19:38:24.581Z,14.87
2018-12-29T19:40:51.598Z,14.37
2018-12-29T19:43:18.718Z,12.97
2018-12-29T19:45:45.719Z,13.03
2018-12-29T19:48:13.050Z,13.70
2018-12-29T19:50:40.407Z,13.83
2018-12-29T19:53:08.267Z,13.22
2018-12-29T19:55:35.023Z,13.80
2018-12-29T19:58:02.030Z,12.63
2018-12-29T20:00:29.502Z,12.93
2018-12-29T20:02:57.254Z,13.38
2018-12-29T20:05:24.635Z,12.85
2018-12-29T20:07:51.710Z,14.00
2018-12-29T20:10:20.228Z,22.55
2018-12-29T20:12:47.427Z,14.77
2018-12-29T20:15:14.453Z,12.98
2018-12-29T20:17:41.562Z,12.60
2018-12-29T20:20:08.690Z,13.77
2018-12-29T20:22:35.746Z,12.07
2018-12-29T20:25:03.251Z,12.03
2018-12-29T20:27:30.019Z,12.15
2018-12-29T20:29:57.191Z,10.35
2018-12-29T20:32:24.694Z,11.97
2018-12-29T20:34:51.734Z,11.20
2018-12-29T20:37:19.023Z,10.88
2018-12-29T20:39:45.798Z,9.77
2018-12-29T20:42:13.103Z,10.63
2018-12-29T20:44:40.539Z,11.38
2018-12-29T20:47:07.607Z,9.83
2018-12-29T20:49:34.962Z,10.32
2018-12-29T20:52:02.006Z,9.03
2018-12-29T20:54:29.419Z,10.00
2018-12-29T20:56:56.326Z,9.58
2018-12-29T20:59:23.622Z,9.95
2018-12-29T21:01:50.632Z,9.45
2018-12-29T21:04:18.042Z,8.75
2018-12-29T21:06:45.350Z,8.87
2018-12-29T21:09:12.474Z,9.43
2018-12-29T21:11:39.265Z,8.90
2018-12-29T21:14:06.664Z,9.80
2018-12-29T21:16:34.115Z,9.55
2018-12-29T21:19:01.386Z,19.53
2018-12-29T21:21:28.655Z,9.20
2018-12-29T21:23:56.186Z,10.18
2018-12-29T21:26:23.338Z,9.25
2018-12-29T21:28:50.206Z,9.58
2018-12-29T21:31:17.362Z,10.38
2018-12-29T21:33:44.730Z,8.78
2018-12-29T21:36:11.856Z,8.60
2018-12-29T21:38:38.993Z,8.50
2018-12-29T21:41:06.503Z,8.93
2018-12-29T21:43:33.266Z,9.20
2018-12-29T21:46:00.274Z,9.27
2018-12-29T21:48:27.331Z,9.85
2018-12-29T21:50:54.399Z,9.53
2018-12-29T21:53:21.483Z,9.10
2018-12-29T21:55:48.627Z,9.58
2018-12-29T21:58:15.694Z,10.57
2018-12-29T22:00:43.006Z,9.50
2018-12-29T22:03:10.955Z,9.98
2018-12-29T22:05:37.747Z,9.45
2018-12-29T22:08:04.762Z,9.58
2018-12-29T22:10:31.778Z,10.40
2018-12-29T22:12:59.403Z,9.93
2018-12-29T22:15:26.685Z,10.20
2018-12-29T22:17:54.031Z,9.70
2018-12-29T22:20:21.363Z,9.70
2018-12-29T22:22:48.431Z,10.20
2018-12-29T22:25:15.610Z,10.48
2018-12-29T22:27:43.036Z,10.60
2018-12-29T22:30:10.169Z,12.13
2018-12-29T22:32:37.655Z,10.72
2018-12-29T22:35:04.942Z,11.60
2018-12-29T22:37:32.254Z,11.10
2018-12-29T22:39:59.770Z,11.07
2018-12-29T22:42:26.911Z,11.08
2018-12-29T22:44:54.010Z,11.28
2018-12-29T22:47:21.230Z,10.77
2018-12-29T22:49:48.602Z,11.27
2018-12-29T22:52:15.652Z,12.00
2018-12-29T22:54:43.022Z,11.78
2018-12-29T22:57:10.054Z,12.20
2018-12-29T22:59:37.570Z,12.00
2018-12-29T23:02:05.168Z,11.85
2018-12-29T23:04:32.309Z,13.18
2018-12-29T23:06:59.448Z,11.88
2018-12-29T23:09:26.899Z,12.50
2018-12-29T23:11:54.242Z,11.97
2018-12-29T23:14:21.758Z,13.80
2018-12-29T23:16:50.326Z,12.23
2018-12-29T23:19:17.886Z,11.77
2018-12-29T23:21:45.099Z,13.27
2018-12-29T23:24:13.178Z,12.47
2018-12-29T23:26:40.570Z,12.73
2018-12-29T23:29:08.142Z,12.83
2018-12-29T23:31:35.703Z,12.57
2018-12-29T23:34:03.266Z,13.73
2018-12-29T23:36:30.127Z,14.23
2018-12-29T23:38:57.447Z,13.83
2018-12-29T23:41:24.721Z,12.73
2018-12-29T23:43:52.151Z,13.00
2018-12-29T23:46:19.867Z,12.60
2018-12-29T23:48:46.991Z,13.77
2018-12-29T23:51:14.162Z,13.37
2018-12-29T23:53:40.958Z,13.03
2018-12-29T23:56:08.727Z,12.70
2018-12-29T23:58:35.775Z,13.33
